sensor_id;sensor_type;location;lat;lon;timestamp;temperature;humidity
52481;DHT22;38393;52.404;13.532;2024-03-23T00:53:43;8.20;99.90
52481;DHT22;38393;52.404;13.532;2024-03-23T00:56:08;8.40;99.90
52481;DHT22;38393;52.404;13.532;2024-03-23T00:58:34;8.30;99.90
52481;DHT22;38393;52.404;13.532;2024-03-23T01:01:00;8.30;99.90
52481;DHT22;38393;52.404;13.532;2024-03-23T01:03:25;8.40;99.90
52481;DHT22;38393;52.404;13.532;2024-03-23T01:05:51;8.20;99.90
52481;DHT22;38393;52.404;13.532;2024-03-23T01:08:18;8.20;99.90
52481;DHT22;38393;52.404;13.532;2024-03-23T01:10:56;8.20;99.90
52481;DHT22;38393;52.404;13.532;2024-03-23T01:13:22;8.20;99.90
52481;DHT22;38393;52.404;13.532;2024-03-23T01:15:52;8.40;99.90
52481;DHT22;38393;52.404;13.532;2024-03-23T01:18:24;8.40;99.90
52481;DHT22;38393;52.404;13.532;2024-03-23T01:20:55;8.50;99.90
52481;DHT22;38393;52.404;13.532;2024-03-23T01:23:23;8.30;99.90
52481;DHT22;38393;52.404;13.532;2024-03-23T01:25:55;8.20;99.90
52481;DHT22;38393;52.404;13.532;2024-03-23T01:28:21;8.20;99.90
52481;DHT22;38393;52.404;13.532;2024-03-23T01:30:47;8.20;99.90
52481;DHT22;38393;52.404;13.532;2024-03-23T01:33:13;8.10;99.90
52481;DHT22;38393;52.404;13.532;2024-03-23T01:35:39;8.20;99.90
52481;DHT22;38393;52.404;13.532;2024-03-23T01:38:04;8.20;99.90
52481;DHT22;38393;52.404;13.532;2024-03-23T01:40:30;8.20;99.90
52481;DHT22;38393;52.404;13.532;2024-03-23T01:42:58;8.10;99.90
52481;DHT22;38393;52.404;13.532;2024-03-23T01:45:27;8.20;99.90
52481;DHT22;38393;52.404;13.532;2024-03-23T01:47:53;8.20;99.90
52481;DHT22;38393;52.404;13.532;2024-03-23T01:50:19;8.30;99.90
52481;DHT22;38393;52.404;13.532;2024-03-23T01:52:45;8.10;99.90
52481;DHT22;38393;52.404;13.532;2024-03-23T01:55:10;8.10;99.90
52481;DHT22;38393;52.404;13.532;2024-03-23T01:57:36;8.10;99.90
52481;DHT22;38393;52.404;13.532;2024-03-23T02:00:02;8.10;99.90
52481;DHT22;38393;52.404;13.532;2024-03-23T02:02:28;8.00;99.90
52481;DHT22;38393;52.404;13.532;2024-03-23T02:04:53;8.00;99.90
52481;DHT22;38393;52.404;13.532;2024-03-23T02:07:19;8.00;99.90
52481;DHT22;38393;52.404;13.532;2024-03-23T02:09:44;8.10;99.90
52481;DHT22;38393;52.404;13.532;2024-03-23T02:12:10;8.00;99.90
52481;DHT22;38393;52.404;13.532;2024-03-23T02:14:36;8.00;99.90
52481;DHT22;38393;52.404;13.532;2024-03-23T02:17:01;7.90;99.90
52481;DHT22;38393;52.404;13.532;2024-03-23T02:19:27;8.00;99.90
52481;DHT22;38393;52.404;13.532;2024-03-23T02:21:54;8.10;99.90
52481;DHT22;38393;52.404;13.532;2024-03-23T02:24:20;8.10;99.90
52481;DHT22;38393;52.404;13.532;2024-03-23T02:26:45;8.00;99.90
52481;DHT22;38393;52.404;13.532;2024-03-23T02:29:13;8.00;99.90
52481;DHT22;38393;52.404;13.532;2024-03-23T02:31:39;7.90;99.90
52481;DHT22;38393;52.404;13.532;2024-03-23T02:34:04;7.90;99.90
52481;DHT22;38393;52.404;13.532;2024-03-23T02:36:30;7.90;99.90
52481;DHT22;38393;52.404;13.532;2024-03-23T02:38:56;8.00;99.90
52481;DHT22;38393;52.404;13.532;2024-03-23T02:41:27;8.10;99.90
52481;DHT22;38393;52.404;13.532;2024-03-23T02:43:53;7.90;99.90
52481;DHT22;38393;52.404;13.532;2024-03-23T02:46:19;7.90;99.90
52481;DHT22;38393;52.404;13.532;2024-03-23T02:48:49;8.00;99.90
52481;DHT22;38393;52.404;13.532;2024-03-23T02:51:14;7.90;99.90
52481;DHT22;38393;52.404;13.532;2024-03-23T02:53:40;7.90;99.90
52481;DHT22;38393;52.404;13.532;2024-03-23T02:56:06;7.90;99.90
52481;DHT22;38393;52.404;13.532;2024-03-23T02:58:32;7.80;99.90
52481;DHT22;38393;52.404;13.532;2024-03-23T03:00:58;7.80;99.90
52481;DHT22;38393;52.404;13.532;2024-03-23T03:03:23;7.90;99.90
52481;DHT22;38393;52.404;13.532;2024-03-23T03:05:55;7.80;99.90
52481;DHT22;38393;52.404;13.532;2024-03-23T03:08:21;7.80;99.90
52481;DHT22;38393;52.404;13.532;2024-03-23T03:10:47;7.80;99.90
52481;DHT22;38393;52.404;13.532;2024-03-23T03:13:12;7.80;99.90
52481;DHT22;38393;52.404;13.532;2024-03-23T03:15:39;7.80;99.90
52481;DHT22;38393;52.404;13.532;2024-03-23T03:18:05;7.90;99.90
52481;DHT22;38393;52.404;13.532;2024-03-23T03:20:30;7.90;99.90
52481;DHT22;38393;52.404;13.532;2024-03-23T03:22:59;8.00;99.90
52481;DHT22;38393;52.404;13.532;2024-03-23T03:25:25;7.90;99.90
52481;DHT22;38393;52.404;13.532;2024-03-23T03:27:50;7.90;99.90
52481;DHT22;38393;52.404;13.532;2024-03-23T03:30:16;7.80;99.90
52481;DHT22;38393;52.404;13.532;2024-03-23T03:32:41;7.80;99.90
52481;DHT22;38393;52.404;13.532;2024-03-23T03:35:07;7.80;99.90
52481;DHT22;38393;52.404;13.532;2024-03-23T03:37:32;7.80;99.90
52481;DHT22;38393;52.404;13.532;2024-03-23T03:39:58;8.00;99.90
52481;DHT22;38393;52.404;13.532;2024-03-23T03:42:23;7.80;99.90
52481;DHT22;38393;52.404;13.532;2024-03-23T03:44:49;7.80;99.90
52481;DHT22;38393;52.404;13.532;2024-03-23T03:47:14;7.80;99.90
52481;DHT22;38393;52.404;13.532;2024-03-23T03:49:39;7.70;99.90
52481;DHT22;38393;52.404;13.532;2024-03-23T03:52:05;7.70;99.90
52481;DHT22;38393;52.404;13.532;2024-03-23T03:54:31;7.70;99.90
52481;DHT22;38393;52.404;13.532;2024-03-23T03:56:56;7.50;99.90
52481;DHT22;38393;52.404;13.532;2024-03-23T03:59:22;7.80;99.90
52481;DHT22;38393;52.404;13.532;2024-03-23T04:01:47;7.70;99.90
52481;DHT22;38393;52.404;13.532;2024-03-23T04:04:13;7.80;99.90
52481;DHT22;38393;52.404;13.532;2024-03-23T04:06:39;7.60;99.90
52481;DHT22;38393;52.404;13.532;2024-03-23T04:09:04;7.70;99.90
52481;DHT22;38393;52.404;13.532;2024-03-23T04:11:31;7.70;99.90
52481;DHT22;38393;52.404;13.532;2024-03-23T04:13:57;7.70;99.90
52481;DHT22;38393;52.404;13.532;2024-03-23T04:16:32;7.70;99.90
52481;DHT22;38393;52.404;13.532;2024-03-23T04:18:57;7.80;99.90
52481;DHT22;38393;52.404;13.532;2024-03-23T04:21:23;7.80;99.90
52481;DHT22;38393;52.404;13.532;2024-03-23T04:23:48;7.70;99.90
52481;DHT22;38393;52.404;13.532;2024-03-23T04:26:15;7.70;99.90
52481;DHT22;38393;52.404;13.532;2024-03-23T04:28:41;7.80;99.90
52481;DHT22;38393;52.404;13.532;2024-03-23T04:31:06;7.70;99.90
52481;DHT22;38393;52.404;13.532;2024-03-23T04:33:32;7.90;99.90
52481;DHT22;38393;52.404;13.532;2024-03-23T04:35:57;7.70;99.90
52481;DHT22;38393;52.404;13.532;2024-03-23T04:38:23;7.80;99.90
52481;DHT22;38393;52.404;13.532;2024-03-23T04:40:59;7.70;99.90
52481;DHT22;38393;52.404;13.532;2024-03-23T04:43:25;7.60;99.90
52481;DHT22;38393;52.404;13.532;2024-03-23T04:45:51;7.50;99.90
52481;DHT22;38393;52.404;13.532;2024-03-23T04:48:16;7.60;99.90
52481;DHT22;38393;52.404;13.532;2024-03-23T04:50:42;7.40;99.90
52481;DHT22;38393;52.404;13.532;2024-03-23T04:53:07;7.40;99.90
52481;DHT22;38393;52.404;13.532;2024-03-23T04:55:33;7.40;99.90
52481;DHT22;38393;52.404;13.532;2024-03-23T04:57:58;7.40;99.90
52481;DHT22;38393;52.404;13.532;2024-03-23T05:00:24;7.30;99.90
52481;DHT22;38393;52.404;13.532;2024-03-23T05:02:50;7.30;99.90
52481;DHT22;38393;52.404;13.532;2024-03-23T05:05:15;7.10;99.90
52481;DHT22;38393;52.404;13.532;2024-03-23T05:07:41;7.20;99.90
52481;DHT22;38393;52.404;13.532;2024-03-23T05:10:08;7.20;99.90
52481;DHT22;38393;52.404;13.532;2024-03-23T05:12:39;7.10;99.90
52481;DHT22;38393;52.404;13.532;2024-03-23T05:15:06;7.20;99.90
52481;DHT22;38393;52.404;13.532;2024-03-23T05:17:34;7.20;99.90
52481;DHT22;38393;52.404;13.532;2024-03-23T05:20:00;7.40;99.90
52481;DHT22;38393;52.404;13.532;2024-03-23T05:22:25;7.30;99.90
52481;DHT22;38393;52.404;13.532;2024-03-23T05:24:52;7.40;99.90
52481;DHT22;38393;52.404;13.532;2024-03-23T05:27:18;7.30;99.90
52481;DHT22;38393;52.404;13.532;2024-03-23T05:29:43;7.20;99.90
52481;DHT22;38393;52.404;13.532;2024-03-23T05:32:09;7.20;99.90
52481;DHT22;38393;52.404;13.532;2024-03-23T05:34:34;7.00;99.90
52481;DHT22;38393;52.404;13.532;2024-03-23T05:37:00;7.20;99.90
52481;DHT22;38393;52.404;13.532;2024-03-23T05:39:25;7.10;99.90
52481;DHT22;38393;52.404;13.532;2024-03-23T05:41:50;7.10;99.90
52481;DHT22;38393;52.404;13.532;2024-03-23T05:44:16;7.00;99.90
52481;DHT22;38393;52.404;13.532;2024-03-23T05:46:42;7.00;99.90
52481;DHT22;38393;52.404;13.532;2024-03-23T05:49:08;7.00;99.90
52481;DHT22;38393;52.404;13.532;2024-03-23T05:51:34;6.90;99.90
52481;DHT22;38393;52.404;13.532;2024-03-23T05:53:59;6.90;99.90
52481;DHT22;38393;52.404;13.532;2024-03-23T05:56:26;7.00;99.90
52481;DHT22;38393;52.404;13.532;2024-03-23T05:58:51;7.00;99.90
52481;DHT22;38393;52.404;13.532;2024-03-23T06:01:17;7.10;99.90
52481;DHT22;38393;52.404;13.532;2024-03-23T06:03:42;7.00;99.90
52481;DHT22;38393;52.404;13.532;2024-03-23T06:06:09;7.10;99.90
52481;DHT22;38393;52.404;13.532;2024-03-23T06:08:37;6.90;99.90
52481;DHT22;38393;52.404;13.532;2024-03-23T06:11:03;7.10;99.90
52481;DHT22;38393;52.404;13.532;2024-03-23T06:13:29;7.10;99.90
52481;DHT22;38393;52.404;13.532;2024-03-23T06:15:55;7.20;99.90
52481;DHT22;38393;52.404;13.532;2024-03-23T06:18:21;7.20;99.90
52481;DHT22;38393;52.404;13.532;2024-03-23T06:20:46;7.00;99.90
52481;DHT22;38393;52.404;13.532;2024-03-23T06:23:12;7.10;99.90
52481;DHT22;38393;52.404;13.532;2024-03-23T06:25:38;7.00;99.90
52481;DHT22;38393;52.404;13.532;2024-03-23T06:28:04;7.10;99.90
52481;DHT22;38393;52.404;13.532;2024-03-23T06:30:29;7.10;99.90
52481;DHT22;38393;52.404;13.532;2024-03-23T06:32:56;7.10;99.90
52481;DHT22;38393;52.404;13.532;2024-03-23T06:35:22;7.20;99.90
52481;DHT22;38393;52.404;13.532;2024-03-23T06:37:47;7.20;99.90
52481;DHT22;38393;52.404;13.532;2024-03-23T06:40:13;7.20;99.90
52481;DHT22;38393;52.404;13.532;2024-03-23T06:42:38;7.10;99.90
52481;DHT22;38393;52.404;13.532;2024-03-23T06:45:05;7.00;99.90
52481;DHT22;38393;52.404;13.532;2024-03-23T06:47:31;7.20;99.90
52481;DHT22;38393;52.404;13.532;2024-03-23T06:49:56;7.20;99.90
52481;DHT22;38393;52.404;13.532;2024-03-23T06:52:22;7.00;99.90
52481;DHT22;38393;52.404;13.532;2024-03-23T06:54:47;7.10;99.90
52481;DHT22;38393;52.404;13.532;2024-03-23T06:57:12;7.10;99.90
52481;DHT22;38393;52.404;13.532;2024-03-23T06:59:38;7.20;99.90
52481;DHT22;38393;52.404;13.532;2024-03-23T07:02:06;7.20;99.90
52481;DHT22;38393;52.404;13.532;2024-03-23T07:04:35;7.20;99.90
52481;DHT22;38393;52.404;13.532;2024-03-23T07:07:01;7.20;99.90
52481;DHT22;38393;52.404;13.532;2024-03-23T07:09:28;7.10;99.90
52481;DHT22;38393;52.404;13.532;2024-03-23T07:11:54;7.20;99.90
52481;DHT22;38393;52.404;13.532;2024-03-23T07:14:21;7.20;99.90
52481;DHT22;38393;52.404;13.532;2024-03-23T07:16:46;7.40;99.90
52481;DHT22;38393;52.404;13.532;2024-03-23T07:19:11;7.30;99.90
52481;DHT22;38393;52.404;13.532;2024-03-23T07:21:37;7.30;99.90
52481;DHT22;38393;52.404;13.532;2024-03-23T07:24:03;7.20;99.90
52481;DHT22;38393;52.404;13.532;2024-03-23T07:26:28;7.30;99.90
52481;DHT22;38393;52.404;13.532;2024-03-23T07:28:54;7.40;99.90
52481;DHT22;38393;52.404;13.532;2024-03-23T07:31:19;7.40;99.90
52481;DHT22;38393;52.404;13.532;2024-03-23T07:33:46;7.40;99.90
52481;DHT22;38393;52.404;13.532;2024-03-23T07:36:12;7.50;99.90
52481;DHT22;38393;52.404;13.532;2024-03-23T07:38:40;7.50;99.90
52481;DHT22;38393;52.404;13.532;2024-03-23T07:41:10;7.60;99.90
52481;DHT22;38393;52.404;13.532;2024-03-23T07:43:37;7.30;99.90
52481;DHT22;38393;52.404;13.532;2024-03-23T07:46:03;7.20;99.90
52481;DHT22;38393;52.404;13.532;2024-03-23T07:48:29;7.40;99.90
52481;DHT22;38393;52.404;13.532;2024-03-23T07:51:18;7.30;99.90
52481;DHT22;38393;52.404;13.532;2024-03-23T07:53:44;7.30;99.90
52481;DHT22;38393;52.404;13.532;2024-03-23T07:56:11;7.20;99.90
52481;DHT22;38393;52.404;13.532;2024-03-23T07:58:37;7.20;99.90
52481;DHT22;38393;52.404;13.532;2024-03-23T08:01:09;7.30;99.90
52481;DHT22;38393;52.404;13.532;2024-03-23T08:03:40;7.20;99.90
52481;DHT22;38393;52.404;13.532;2024-03-23T08:06:12;7.30;99.90
52481;DHT22;38393;52.404;13.532;2024-03-23T08:08:39;7.30;99.90
52481;DHT22;38393;52.404;13.532;2024-03-23T08:11:04;7.30;99.90
52481;DHT22;38393;52.404;13.532;2024-03-23T08:13:30;7.20;99.90
52481;DHT22;38393;52.404;13.532;2024-03-23T08:16:00;7.20;99.90
52481;DHT22;38393;52.404;13.532;2024-03-23T08:18:25;7.20;99.90
52481;DHT22;38393;52.404;13.532;2024-03-23T08:21:00;7.20;99.90
52481;DHT22;38393;52.404;13.532;2024-03-23T08:23:27;7.00;99.90
52481;DHT22;38393;52.404;13.532;2024-03-23T08:26:06;7.00;99.90
52481;DHT22;38393;52.404;13.532;2024-03-23T08:28:32;7.10;99.90
52481;DHT22;38393;52.404;13.532;2024-03-23T08:31:01;7.10;99.90
52481;DHT22;38393;52.404;13.532;2024-03-23T08:33:27;7.00;99.90
52481;DHT22;38393;52.404;13.532;2024-03-23T08:35:57;7.20;99.90
52481;DHT22;38393;52.404;13.532;2024-03-23T08:38:24;7.20;99.90
52481;DHT22;38393;52.404;13.532;2024-03-23T08:41:06;7.10;99.90
52481;DHT22;38393;52.404;13.532;2024-03-23T08:43:34;7.20;99.90
52481;DHT22;38393;52.404;13.532;2024-03-23T08:46:07;7.20;99.90
52481;DHT22;38393;52.404;13.532;2024-03-23T08:48:38;7.20;99.90
52481;DHT22;38393;52.404;13.532;2024-03-23T08:51:06;7.10;99.90
52481;DHT22;38393;52.404;13.532;2024-03-23T08:53:32;7.10;99.90
52481;DHT22;38393;52.404;13.532;2024-03-23T08:55:58;6.90;99.90
52481;DHT22;38393;52.404;13.532;2024-03-23T08:58:25;6.90;99.90
52481;DHT22;38393;52.404;13.532;2024-03-23T09:00:52;6.80;99.90
52481;DHT22;38393;52.404;13.532;2024-03-23T09:03:17;6.60;99.90
52481;DHT22;38393;52.404;13.532;2024-03-23T09:05:43;6.50;99.90
52481;DHT22;38393;52.404;13.532;2024-03-23T09:08:08;6.40;99.90
52481;DHT22;38393;52.404;13.532;2024-03-23T09:10:41;6.40;99.90
52481;DHT22;38393;52.404;13.532;2024-03-23T09:13:07;6.50;99.90
52481;DHT22;38393;52.404;13.532;2024-03-23T09:15:34;6.30;99.90
52481;DHT22;38393;52.404;13.532;2024-03-23T09:18:00;6.30;99.90
52481;DHT22;38393;52.404;13.532;2024-03-23T09:20:26;6.10;99.90
52481;DHT22;38393;52.404;13.532;2024-03-23T09:22:51;6.00;99.90
52481;DHT22;38393;52.404;13.532;2024-03-23T09:25:17;6.10;99.90
52481;DHT22;38393;52.404;13.532;2024-03-23T09:27:42;6.00;99.90
52481;DHT22;38393;52.404;13.532;2024-03-23T09:30:08;5.90;99.90
52481;DHT22;38393;52.404;13.532;2024-03-23T09:32:35;5.90;99.90
52481;DHT22;38393;52.404;13.532;2024-03-23T09:35:00;5.80;99.90
52481;DHT22;38393;52.404;13.532;2024-03-23T09:37:26;5.70;99.90
52481;DHT22;38393;52.404;13.532;2024-03-23T09:39:51;5.90;99.90
52481;DHT22;38393;52.404;13.532;2024-03-23T09:42:17;5.60;99.90
52481;DHT22;38393;52.404;13.532;2024-03-23T09:44:43;5.70;99.90
52481;DHT22;38393;52.404;13.532;2024-03-23T09:47:09;5.60;99.90
52481;DHT22;38393;52.404;13.532;2024-03-23T09:49:34;5.60;99.90
52481;DHT22;38393;52.404;13.532;2024-03-23T09:52:02;5.50;99.90
52481;DHT22;38393;52.404;13.532;2024-03-23T09:54:28;5.50;99.90
52481;DHT22;38393;52.404;13.532;2024-03-23T09:56:53;5.50;99.90
52481;DHT22;38393;52.404;13.532;2024-03-23T09:59:19;5.40;99.90
52481;DHT22;38393;52.404;13.532;2024-03-23T10:01:44;5.30;99.90
52481;DHT22;38393;52.404;13.532;2024-03-23T10:04:10;5.30;99.90
52481;DHT22;38393;52.404;13.532;2024-03-23T10:06:35;5.30;99.90
52481;DHT22;38393;52.404;13.532;2024-03-23T10:09:02;5.30;99.90
52481;DHT22;38393;52.404;13.532;2024-03-23T10:11:41;5.30;99.90
52481;DHT22;38393;52.404;13.532;2024-03-23T10:14:09;5.30;99.90
52481;DHT22;38393;52.404;13.532;2024-03-23T10:16:34;5.20;99.90
52481;DHT22;38393;52.404;13.532;2024-03-23T10:19:00;5.20;99.90
52481;DHT22;38393;52.404;13.532;2024-03-23T10:21:25;5.20;99.90
52481;DHT22;38393;52.404;13.532;2024-03-23T10:23:51;5.10;99.90
52481;DHT22;38393;52.404;13.532;2024-03-23T10:26:18;5.20;99.90
52481;DHT22;38393;52.404;13.532;2024-03-23T10:29:02;5.20;99.90
52481;DHT22;38393;52.404;13.532;2024-03-23T10:31:33;5.20;99.90
52481;DHT22;38393;52.404;13.532;2024-03-23T10:34:01;5.20;99.90
52481;DHT22;38393;52.404;13.532;2024-03-23T10:36:26;5.20;99.90
52481;DHT22;38393;52.404;13.532;2024-03-23T10:38:53;5.30;99.90
52481;DHT22;38393;52.404;13.532;2024-03-23T10:41:19;5.30;99.90
52481;DHT22;38393;52.404;13.532;2024-03-23T10:43:46;5.30;99.90
52481;DHT22;38393;52.404;13.532;2024-03-23T10:46:11;5.10;99.90
52481;DHT22;38393;52.404;13.532;2024-03-23T10:48:37;5.00;99.90
52481;DHT22;38393;52.404;13.532;2024-03-23T10:51:04;5.00;99.90
52481;DHT22;38393;52.404;13.532;2024-03-23T10:53:33;5.00;99.90
52481;DHT22;38393;52.404;13.532;2024-03-23T10:55:59;5.00;99.90
52481;DHT22;38393;52.404;13.532;2024-03-23T10:58:46;4.90;99.90
52481;DHT22;38393;52.404;13.532;2024-03-23T11:01:13;4.90;99.90
52481;DHT22;38393;52.404;13.532;2024-03-23T11:03:40;5.00;99.90
52481;DHT22;38393;52.404;13.532;2024-03-23T11:06:09;5.00;99.90
52481;DHT22;38393;52.404;13.532;2024-03-23T11:08:37;5.10;99.90
52481;DHT22;38393;52.404;13.532;2024-03-23T11:13:40;5.30;99.90
52481;DHT22;38393;52.404;13.532;2024-03-23T11:16:21;5.30;99.90
52481;DHT22;38393;52.404;13.532;2024-03-23T11:18:47;5.20;99.90
52481;DHT22;38393;52.404;13.532;2024-03-23T11:21:51;5.20;99.90
52481;DHT22;38393;52.404;13.532;2024-03-23T11:24:17;5.40;99.90
52481;DHT22;38393;52.404;13.532;2024-03-23T11:26:44;5.50;99.90
52481;DHT22;38393;52.404;13.532;2024-03-23T11:29:10;5.60;99.90
52481;DHT22;38393;52.404;13.532;2024-03-23T11:31:37;5.60;99.90
52481;DHT22;38393;52.404;13.532;2024-03-23T11:34:06;5.60;99.90
52481;DHT22;38393;52.404;13.532;2024-03-23T11:36:32;5.80;99.90
52481;DHT22;38393;52.404;13.532;2024-03-23T11:38:57;5.50;99.90
52481;DHT22;38393;52.404;13.532;2024-03-23T11:41:23;5.50;99.90
52481;DHT22;38393;52.404;13.532;2024-03-23T11:43:48;5.50;99.90
52481;DHT22;38393;52.404;13.532;2024-03-23T11:46:22;5.60;99.90
52481;DHT22;38393;52.404;13.532;2024-03-23T11:48:51;5.60;99.90
52481;DHT22;38393;52.404;13.532;2024-03-23T11:51:17;5.70;99.90
52481;DHT22;38393;52.404;13.532;2024-03-23T11:53:42;5.70;99.90
52481;DHT22;38393;52.404;13.532;2024-03-23T11:56:08;5.70;99.90
52481;DHT22;38393;52.404;13.532;2024-03-23T11:58:34;5.80;99.90
52481;DHT22;38393;52.404;13.532;2024-03-23T12:01:02;6.00;99.90
52481;DHT22;38393;52.404;13.532;2024-03-23T12:03:29;6.00;99.90
52481;DHT22;38393;52.404;13.532;2024-03-23T12:05:56;6.10;99.90
52481;DHT22;38393;52.404;13.532;2024-03-23T12:08:23;6.30;99.90
52481;DHT22;38393;52.404;13.532;2024-03-23T12:11:05;6.20;99.90
52481;DHT22;38393;52.404;13.532;2024-03-23T12:13:30;6.30;99.90
52481;DHT22;38393;52.404;13.532;2024-03-23T12:16:09;6.20;99.90
52481;DHT22;38393;52.404;13.532;2024-03-23T12:18:35;6.00;99.90
52481;DHT22;38393;52.404;13.532;2024-03-23T12:21:00;6.10;99.90
52481;DHT22;38393;52.404;13.532;2024-03-23T12:23:26;6.20;99.90
52481;DHT22;38393;52.404;13.532;2024-03-23T12:25:51;6.20;99.90
52481;DHT22;38393;52.404;13.532;2024-03-23T12:28:17;6.20;99.90
52481;DHT22;38393;52.404;13.532;2024-03-23T12:30:42;6.20;99.90
52481;DHT22;38393;52.404;13.532;2024-03-23T12:33:08;6.40;99.90
52481;DHT22;38393;52.404;13.532;2024-03-23T12:35:34;6.30;99.90
52481;DHT22;38393;52.404;13.532;2024-03-23T12:37:59;6.10;99.90
52481;DHT22;38393;52.404;13.532;2024-03-23T12:40:25;6.10;99.90
52481;DHT22;38393;52.404;13.532;2024-03-23T12:42:50;6.00;99.90
52481;DHT22;38393;52.404;13.532;2024-03-23T12:45:16;6.30;99.90
52481;DHT22;38393;52.404;13.532;2024-03-23T12:47:42;6.30;99.90
52481;DHT22;38393;52.404;13.532;2024-03-23T12:50:07;6.30;99.90
52481;DHT22;38393;52.404;13.532;2024-03-23T12:52:33;6.40;99.90
52481;DHT22;38393;52.404;13.532;2024-03-23T12:54:59;6.60;99.90
52481;DHT22;38393;52.404;13.532;2024-03-23T12:57:25;6.70;99.90
52481;DHT22;38393;52.404;13.532;2024-03-23T12:59:51;6.60;99.90
52481;DHT22;38393;52.404;13.532;2024-03-23T13:02:18;6.80;99.90
52481;DHT22;38393;52.404;13.532;2024-03-23T13:04:45;6.70;99.90
52481;DHT22;38393;52.404;13.532;2024-03-23T13:07:11;6.80;99.90
52481;DHT22;38393;52.404;13.532;2024-03-23T13:09:36;6.60;99.90
52481;DHT22;38393;52.404;13.532;2024-03-23T13:12:02;6.60;99.90
52481;DHT22;38393;52.404;13.532;2024-03-23T13:14:27;6.60;99.90
52481;DHT22;38393;52.404;13.532;2024-03-23T13:16:53;6.80;99.90
52481;DHT22;38393;52.404;13.532;2024-03-23T13:19:19;6.80;99.90
52481;DHT22;38393;52.404;13.532;2024-03-23T13:21:45;7.10;99.90
52481;DHT22;38393;52.404;13.532;2024-03-23T13:24:10;7.00;99.90
52481;DHT22;38393;52.404;13.532;2024-03-23T13:26:36;7.00;99.90
52481;DHT22;38393;52.404;13.532;2024-03-23T13:29:02;7.50;99.90
52481;DHT22;38393;52.404;13.532;2024-03-23T13:31:27;7.60;99.90
52481;DHT22;38393;52.404;13.532;2024-03-23T13:33:53;8.00;99.90
52481;DHT22;38393;52.404;13.532;2024-03-23T13:36:18;8.00;99.90
52481;DHT22;38393;52.404;13.532;2024-03-23T13:38:43;7.90;99.90
52481;DHT22;38393;52.404;13.532;2024-03-23T13:41:09;7.90;99.90
52481;DHT22;38393;52.404;13.532;2024-03-23T13:43:37;8.10;99.90
52481;DHT22;38393;52.404;13.532;2024-03-23T13:46:03;8.30;99.90
52481;DHT22;38393;52.404;13.532;2024-03-23T13:48:28;8.30;99.90
52481;DHT22;38393;52.404;13.532;2024-03-23T13:51:02;8.10;99.90
52481;DHT22;38393;52.404;13.532;2024-03-23T13:53:28;8.40;99.90
52481;DHT22;38393;52.404;13.532;2024-03-23T13:55:54;8.50;99.90
52481;DHT22;38393;52.404;13.532;2024-03-23T13:58:19;8.30;99.90
52481;DHT22;38393;52.404;13.532;2024-03-23T14:00:45;8.30;99.90
52481;DHT22;38393;52.404;13.532;2024-03-23T14:03:11;8.10;99.90
52481;DHT22;38393;52.404;13.532;2024-03-23T14:05:37;8.20;99.90
52481;DHT22;38393;52.404;13.532;2024-03-23T14:08:05;8.40;99.90
52481;DHT22;38393;52.404;13.532;2024-03-23T14:10:31;8.50;99.90
52481;DHT22;38393;52.404;13.532;2024-03-23T14:12:56;8.60;99.90
52481;DHT22;38393;52.404;13.532;2024-03-23T14:15:21;8.70;99.90
52481;DHT22;38393;52.404;13.532;2024-03-23T14:17:47;8.60;99.90
52481;DHT22;38393;52.404;13.532;2024-03-23T14:20:12;8.70;99.90
52481;DHT22;38393;52.404;13.532;2024-03-23T14:22:38;8.60;99.90
52481;DHT22;38393;52.404;13.532;2024-03-23T14:25:06;8.60;99.90
52481;DHT22;38393;52.404;13.532;2024-03-23T14:27:32;8.80;99.90
52481;DHT22;38393;52.404;13.532;2024-03-23T14:29:58;8.80;99.90
52481;DHT22;38393;52.404;13.532;2024-03-23T14:32:23;8.80;99.90
52481;DHT22;38393;52.404;13.532;2024-03-23T14:34:48;8.80;99.90
52481;DHT22;38393;52.404;13.532;2024-03-23T14:37:14;8.80;99.90
52481;DHT22;38393;52.404;13.532;2024-03-23T14:39:41;9.10;99.90
52481;DHT22;38393;52.404;13.532;2024-03-23T14:42:07;9.20;99.90
52481;DHT22;38393;52.404;13.532;2024-03-23T14:44:33;9.20;99.90
52481;DHT22;38393;52.404;13.532;2024-03-23T14:46:59;9.40;99.90
52481;DHT22;38393;52.404;13.532;2024-03-23T14:49:25;9.10;99.90
52481;DHT22;38393;52.404;13.532;2024-03-23T14:51:51;9.00;99.90
52481;DHT22;38393;52.404;13.532;2024-03-23T14:54:16;8.90;99.90
52481;DHT22;38393;52.404;13.532;2024-03-23T14:56:42;9.00;99.90
52481;DHT22;38393;52.404;13.532;2024-03-23T14:59:07;8.80;99.90
52481;DHT22;38393;52.404;13.532;2024-03-23T15:01:33;8.80;99.90
52481;DHT22;38393;52.404;13.532;2024-03-23T15:03:59;8.80;99.90
52481;DHT22;38393;52.404;13.532;2024-03-23T15:06:25;8.70;99.90
52481;DHT22;38393;52.404;13.532;2024-03-23T15:08:50;8.70;99.90
52481;DHT22;38393;52.404;13.532;2024-03-23T15:11:16;8.50;99.90
52481;DHT22;38393;52.404;13.532;2024-03-23T15:13:44;8.10;99.90
52481;DHT22;38393;52.404;13.532;2024-03-23T15:16:09;7.60;99.90
52481;DHT22;38393;52.404;13.532;2024-03-23T15:18:35;7.30;99.90
52481;DHT22;38393;52.404;13.532;2024-03-23T15:21:02;7.30;99.90
52481;DHT22;38393;52.404;13.532;2024-03-23T15:23:29;7.30;99.90
52481;DHT22;38393;52.404;13.532;2024-03-23T15:25:55;7.20;99.90
52481;DHT22;38393;52.404;13.532;2024-03-23T15:28:22;7.30;99.90
52481;DHT22;38393;52.404;13.532;2024-03-23T15:30:48;7.40;99.90
52481;DHT22;38393;52.404;13.532;2024-03-23T15:33:14;7.70;99.90
52481;DHT22;38393;52.404;13.532;2024-03-23T15:35:39;7.90;99.90
52481;DHT22;38393;52.404;13.532;2024-03-23T15:38:05;7.90;99.90
52481;DHT22;38393;52.404;13.532;2024-03-23T15:40:30;8.00;99.90
52481;DHT22;38393;52.404;13.532;2024-03-23T15:42:56;7.90;99.90
52481;DHT22;38393;52.404;13.532;2024-03-23T15:45:21;8.00;99.90
52481;DHT22;38393;52.404;13.532;2024-03-23T15:47:47;8.00;99.90
52481;DHT22;38393;52.404;13.532;2024-03-23T15:50:12;8.00;99.90
52481;DHT22;38393;52.404;13.532;2024-03-23T15:52:38;8.00;99.90
52481;DHT22;38393;52.404;13.532;2024-03-23T15:55:04;8.10;99.90
52481;DHT22;38393;52.404;13.532;2024-03-23T15:57:33;8.00;99.90
52481;DHT22;38393;52.404;13.532;2024-03-23T15:59:59;8.10;99.90
52481;DHT22;38393;52.404;13.532;2024-03-23T16:02:25;7.80;99.90
52481;DHT22;38393;52.404;13.532;2024-03-23T16:04:50;7.90;99.90
52481;DHT22;38393;52.404;13.532;2024-03-23T16:07:16;7.80;99.90
52481;DHT22;38393;52.404;13.532;2024-03-23T16:09:41;7.70;99.90
52481;DHT22;38393;52.404;13.532;2024-03-23T16:12:07;7.60;99.90
52481;DHT22;38393;52.404;13.532;2024-03-23T16:14:32;7.70;99.90
52481;DHT22;38393;52.404;13.532;2024-03-23T16:16:58;7.60;99.90
52481;DHT22;38393;52.404;13.532;2024-03-23T16:19:23;7.60;99.90
52481;DHT22;38393;52.404;13.532;2024-03-23T16:21:48;7.50;99.90